Terminal Aerodrome Forecast
Issued by NWS Cleveland, OH

Home | Current Version | Previous Version | Text Only | Print | Product List | Glossary On
Versions: 1 2 3 4 5 6 7 8 9 10 11 12 13 14 15
000
FTUS41 KCLE 271931 AAA
TAFCAK
TAF AMD
KCAK 271931Z 2720/2818 23006KT P6SM VCSH SCT035 BKN120
     FM272300 00000KT P6SM BKN060
     FM280900 04005KT 5SM BR BKN025
     FM281300 06007KT P6SM VCSH OVC025
     FM281700 04007KT P6SM OVC035=

USA.gov is the U.S. government's official web portal to all federal, state and local government web resources and services.